sensor_id;sensor_type;location;lat;lon;timestamp;P1;durP1;ratioP1;P2;durP2;ratioP2
41643;SDS011;44236;48.098;11.582;2023-11-22T00:00:37;1.60;;;0.90;;
41643;SDS011;44236;48.098;11.582;2023-11-22T00:03:02;2.20;;;1.48;;
41643;SDS011;44236;48.098;11.582;2023-11-22T00:05:28;1.83;;;1.10;;
41643;SDS011;44236;48.098;11.582;2023-11-22T00:07:54;2.35;;;1.13;;
41643;SDS011;44236;48.098;11.582;2023-11-22T00:10:22;2.28;;;1.13;;
41643;SDS011;44236;48.098;11.582;2023-11-22T00:12:48;1.83;;;1.10;;
41643;SDS011;44236;48.098;11.582;2023-11-22T00:15:14;1.52;;;0.90;;
41643;SDS011;44236;48.098;11.582;2023-11-22T00:17:43;1.05;;;0.90;;
41643;SDS011;44236;48.098;11.582;2023-11-22T00:20:09;2.15;;;1.02;;
41643;SDS011;44236;48.098;11.582;2023-11-22T00:22:35;2.25;;;0.98;;
41643;SDS011;44236;48.098;11.582;2023-11-22T00:25:01;1.67;;;0.88;;
41643;SDS011;44236;48.098;11.582;2023-11-22T00:27:28;1.73;;;0.90;;
41643;SDS011;44236;48.098;11.582;2023-11-22T00:29:57;2.38;;;1.52;;
41643;SDS011;44236;48.098;11.582;2023-11-22T00:32:23;2.42;;;0.90;;
41643;SDS011;44236;48.098;11.582;2023-11-22T00:34:50;2.25;;;0.90;;
41643;SDS011;44236;48.098;11.582;2023-11-22T00:37:17;1.83;;;1.00;;
41643;SDS011;44236;48.098;11.582;2023-11-22T00:39:43;2.05;;;1.35;;
41643;SDS011;44236;48.098;11.582;2023-11-22T00:42:08;0.90;;;0.70;;
41643;SDS011;44236;48.098;11.582;2023-11-22T00:44:34;1.50;;;0.90;;
41643;SDS011;44236;48.098;11.582;2023-11-22T00:47:01;1.95;;;0.95;;
41643;SDS011;44236;48.098;11.582;2023-11-22T00:49:27;2.17;;;1.10;;
41643;SDS011;44236;48.098;11.582;2023-11-22T00:51:52;2.35;;;1.15;;
41643;SDS011;44236;48.098;11.582;2023-11-22T00:54:18;1.33;;;0.88;;
41643;SDS011;44236;48.098;11.582;2023-11-22T00:56:45;1.83;;;1.00;;
41643;SDS011;44236;48.098;11.582;2023-11-22T00:59:12;1.33;;;1.05;;
41643;SDS011;44236;48.098;11.582;2023-11-22T01:01:39;2.13;;;1.02;;
41643;SDS011;44236;48.098;11.582;2023-11-22T01:04:06;1.52;;;0.80;;
41643;SDS011;44236;48.098;11.582;2023-11-22T01:06:32;1.83;;;1.00;;
41643;SDS011;44236;48.098;11.582;2023-11-22T01:08:58;2.00;;;1.30;;
41643;SDS011;44236;48.098;11.582;2023-11-22T01:11:24;1.65;;;1.17;;
41643;SDS011;44236;48.098;11.582;2023-11-22T01:13:51;1.80;;;1.00;;
41643;SDS011;44236;48.098;11.582;2023-11-22T01:16:17;2.00;;;1.00;;
41643;SDS011;44236;48.098;11.582;2023-11-22T01:18:43;2.58;;;0.98;;
41643;SDS011;44236;48.098;11.582;2023-11-22T01:21:11;2.65;;;1.30;;
41643;SDS011;44236;48.098;11.582;2023-11-22T01:23:36;1.83;;;1.00;;
41643;SDS011;44236;48.098;11.582;2023-11-22T01:26:02;3.17;;;1.05;;
41643;SDS011;44236;48.098;11.582;2023-11-22T01:28:29;1.83;;;1.05;;
41643;SDS011;44236;48.098;11.582;2023-11-22T01:30:59;4.15;;;1.17;;
41643;SDS011;44236;48.098;11.582;2023-11-22T01:33:25;2.25;;;1.23;;
41643;SDS011;44236;48.098;11.582;2023-11-22T01:35:52;1.70;;;1.00;;
41643;SDS011;44236;48.098;11.582;2023-11-22T01:38:21;2.38;;;1.15;;
41643;SDS011;44236;48.098;11.582;2023-11-22T01:40:48;2.13;;;1.20;;
41643;SDS011;44236;48.098;11.582;2023-11-22T01:43:17;2.25;;;1.33;;
41643;SDS011;44236;48.098;11.582;2023-11-22T01:45:44;2.45;;;1.40;;
41643;SDS011;44236;48.098;11.582;2023-11-22T01:48:12;2.30;;;1.10;;
41643;SDS011;44236;48.098;11.582;2023-11-22T01:50:39;1.20;;;0.90;;
41643;SDS011;44236;48.098;11.582;2023-11-22T01:53:06;1.67;;;0.90;;
41643;SDS011;44236;48.098;11.582;2023-11-22T01:55:34;2.88;;;1.08;;
41643;SDS011;44236;48.098;11.582;2023-11-22T01:58:00;1.45;;;1.08;;
41643;SDS011;44236;48.098;11.582;2023-11-22T02:00:27;2.03;;;1.20;;
41643;SDS011;44236;48.098;11.582;2023-11-22T02:03:00;2.22;;;1.10;;
41643;SDS011;44236;48.098;11.582;2023-11-22T02:05:27;2.88;;;1.08;;
41643;SDS011;44236;48.098;11.582;2023-11-22T02:07:52;1.45;;;0.90;;
41643;SDS011;44236;48.098;11.582;2023-11-22T02:10:18;2.08;;;1.00;;
41643;SDS011;44236;48.098;11.582;2023-11-22T02:12:47;1.73;;;1.17;;
41643;SDS011;44236;48.098;11.582;2023-11-22T02:15:12;1.85;;;1.10;;
41643;SDS011;44236;48.098;11.582;2023-11-22T02:17:39;1.10;;;0.80;;
41643;SDS011;44236;48.098;11.582;2023-11-22T02:20:05;2.00;;;1.27;;
41643;SDS011;44236;48.098;11.582;2023-11-22T02:22:34;2.80;;;1.08;;
41643;SDS011;44236;48.098;11.582;2023-11-22T02:25:07;1.65;;;1.13;;
41643;SDS011;44236;48.098;11.582;2023-11-22T02:27:32;1.75;;;1.05;;
41643;SDS011;44236;48.098;11.582;2023-11-22T02:29:58;1.02;;;0.80;;
41643;SDS011;44236;48.098;11.582;2023-11-22T02:32:24;1.02;;;0.82;;
41643;SDS011;44236;48.098;11.582;2023-11-22T02:34:49;2.90;;;1.10;;
41643;SDS011;44236;48.098;11.582;2023-11-22T02:37:15;2.83;;;1.20;;
41643;SDS011;44236;48.098;11.582;2023-11-22T02:39:48;1.77;;;1.02;;
41643;SDS011;44236;48.098;11.582;2023-11-22T02:42:29;4.32;;;0.98;;
41643;SDS011;44236;48.098;11.582;2023-11-22T02:44:55;0.93;;;0.80;;
41643;SDS011;44236;48.098;11.582;2023-11-22T02:47:22;2.25;;;1.08;;
41643;SDS011;44236;48.098;11.582;2023-11-22T02:49:48;2.10;;;1.10;;
41643;SDS011;44236;48.098;11.582;2023-11-22T02:52:14;2.08;;;1.10;;
41643;SDS011;44236;48.098;11.582;2023-11-22T02:54:48;1.67;;;0.95;;
41643;SDS011;44236;48.098;11.582;2023-11-22T02:57:14;1.00;;;0.85;;
41643;SDS011;44236;48.098;11.582;2023-11-22T02:59:46;2.15;;;1.20;;
41643;SDS011;44236;48.098;11.582;2023-11-22T03:02:11;1.52;;;0.82;;
41643;SDS011;44236;48.098;11.582;2023-11-22T03:04:41;1.48;;;1.00;;
41643;SDS011;44236;48.098;11.582;2023-11-22T03:07:07;1.23;;;0.82;;
41643;SDS011;44236;48.098;11.582;2023-11-22T03:09:33;1.45;;;1.10;;
41643;SDS011;44236;48.098;11.582;2023-11-22T03:11:59;1.95;;;0.80;;
41643;SDS011;44236;48.098;11.582;2023-11-22T03:14:25;2.72;;;1.40;;
41643;SDS011;44236;48.098;11.582;2023-11-22T03:16:50;1.75;;;1.00;;
41643;SDS011;44236;48.098;11.582;2023-11-22T03:19:17;3.03;;;0.82;;
41643;SDS011;44236;48.098;11.582;2023-11-22T03:21:44;1.70;;;1.00;;
41643;SDS011;44236;48.098;11.582;2023-11-22T03:24:10;1.13;;;1.00;;
41643;SDS011;44236;48.098;11.582;2023-11-22T03:26:36;0.98;;;0.90;;
41643;SDS011;44236;48.098;11.582;2023-11-22T03:29:02;1.45;;;0.90;;
41643;SDS011;44236;48.098;11.582;2023-11-22T03:31:28;0.90;;;0.90;;
41643;SDS011;44236;48.098;11.582;2023-11-22T03:33:54;1.73;;;0.98;;
41643;SDS011;44236;48.098;11.582;2023-11-22T03:36:20;1.30;;;0.90;;
41643;SDS011;44236;48.098;11.582;2023-11-22T03:38:48;1.17;;;1.00;;
41643;SDS011;44236;48.098;11.582;2023-11-22T03:41:14;2.80;;;1.25;;
41643;SDS011;44236;48.098;11.582;2023-11-22T03:43:39;1.73;;;1.00;;
41643;SDS011;44236;48.098;11.582;2023-11-22T03:46:05;1.52;;;1.00;;
41643;SDS011;44236;48.098;11.582;2023-11-22T03:48:31;1.70;;;1.10;;
41643;SDS011;44236;48.098;11.582;2023-11-22T03:50:56;1.83;;;1.00;;
41643;SDS011;44236;48.098;11.582;2023-11-22T03:53:22;1.08;;;0.80;;
41643;SDS011;44236;48.098;11.582;2023-11-22T03:55:52;1.85;;;1.17;;
41643;SDS011;44236;48.098;11.582;2023-11-22T03:58:17;1.75;;;0.80;;
41643;SDS011;44236;48.098;11.582;2023-11-22T04:00:43;1.67;;;1.00;;
41643;SDS011;44236;48.098;11.582;2023-11-22T04:03:12;3.00;;;1.15;;
41643;SDS011;44236;48.098;11.582;2023-11-22T04:05:39;1.48;;;0.85;;
41643;SDS011;44236;48.098;11.582;2023-11-22T04:08:04;1.83;;;0.95;;
41643;SDS011;44236;48.098;11.582;2023-11-22T04:10:30;2.13;;;1.00;;
41643;SDS011;44236;48.098;11.582;2023-11-22T04:12:56;1.88;;;0.95;;
41643;SDS011;44236;48.098;11.582;2023-11-22T04:15:22;1.55;;;0.90;;
41643;SDS011;44236;48.098;11.582;2023-11-22T04:17:47;1.42;;;0.90;;
41643;SDS011;44236;48.098;11.582;2023-11-22T04:20:14;0.85;;;0.73;;
41643;SDS011;44236;48.098;11.582;2023-11-22T04:22:40;1.65;;;0.93;;
41643;SDS011;44236;48.098;11.582;2023-11-22T04:25:12;1.30;;;0.90;;
41643;SDS011;44236;48.098;11.582;2023-11-22T04:27:41;1.55;;;1.00;;
41643;SDS011;44236;48.098;11.582;2023-11-22T04:30:07;1.77;;;1.00;;
41643;SDS011;44236;48.098;11.582;2023-11-22T04:32:38;1.25;;;0.80;;
41643;SDS011;44236;48.098;11.582;2023-11-22T04:35:04;1.30;;;1.00;;
41643;SDS011;44236;48.098;11.582;2023-11-22T04:37:31;1.33;;;0.93;;
41643;SDS011;44236;48.098;11.582;2023-11-22T04:39:59;1.30;;;0.90;;
41643;SDS011;44236;48.098;11.582;2023-11-22T04:42:26;1.80;;;0.85;;
41643;SDS011;44236;48.098;11.582;2023-11-22T04:44:53;2.15;;;0.88;;
41643;SDS011;44236;48.098;11.582;2023-11-22T04:47:19;1.42;;;0.98;;
41643;SDS011;44236;48.098;11.582;2023-11-22T04:49:47;2.75;;;1.00;;
41643;SDS011;44236;48.098;11.582;2023-11-22T04:52:13;1.58;;;0.90;;
41643;SDS011;44236;48.098;11.582;2023-11-22T04:54:38;1.05;;;0.80;;
41643;SDS011;44236;48.098;11.582;2023-11-22T04:57:04;2.42;;;1.10;;
41643;SDS011;44236;48.098;11.582;2023-11-22T04:59:30;1.10;;;0.80;;
41643;SDS011;44236;48.098;11.582;2023-11-22T05:01:56;1.55;;;1.00;;
41643;SDS011;44236;48.098;11.582;2023-11-22T05:04:22;2.55;;;1.42;;
41643;SDS011;44236;48.098;11.582;2023-11-22T05:06:48;1.70;;;0.90;;
41643;SDS011;44236;48.098;11.582;2023-11-22T05:09:13;1.55;;;0.90;;
41643;SDS011;44236;48.098;11.582;2023-11-22T05:11:39;1.58;;;1.23;;
41643;SDS011;44236;48.098;11.582;2023-11-22T05:14:06;1.38;;;0.85;;
41643;SDS011;44236;48.098;11.582;2023-11-22T05:16:33;1.75;;;1.02;;
41643;SDS011;44236;48.098;11.582;2023-11-22T05:19:00;1.40;;;1.00;;
41643;SDS011;44236;48.098;11.582;2023-11-22T05:21:26;1.27;;;0.90;;
41643;SDS011;44236;48.098;11.582;2023-11-22T05:23:51;1.10;;;0.70;;
41643;SDS011;44236;48.098;11.582;2023-11-22T05:26:19;0.82;;;0.68;;
41643;SDS011;44236;48.098;11.582;2023-11-22T05:28:49;2.40;;;0.75;;
41643;SDS011;44236;48.098;11.582;2023-11-22T05:31:19;1.15;;;0.77;;
41643;SDS011;44236;48.098;11.582;2023-11-22T05:33:45;1.83;;;1.10;;
41643;SDS011;44236;48.098;11.582;2023-11-22T05:36:12;2.92;;;0.98;;
41643;SDS011;44236;48.098;11.582;2023-11-22T05:38:39;1.27;;;0.80;;
41643;SDS011;44236;48.098;11.582;2023-11-22T05:41:04;1.33;;;0.90;;
41643;SDS011;44236;48.098;11.582;2023-11-22T05:43:30;2.83;;;0.80;;
41643;SDS011;44236;48.098;11.582;2023-11-22T05:46:01;1.15;;;0.80;;
41643;SDS011;44236;48.098;11.582;2023-11-22T05:48:28;1.38;;;0.82;;
41643;SDS011;44236;48.098;11.582;2023-11-22T05:50:53;1.13;;;0.70;;
41643;SDS011;44236;48.098;11.582;2023-11-22T05:53:19;1.33;;;0.90;;
41643;SDS011;44236;48.098;11.582;2023-11-22T05:55:46;1.88;;;1.10;;
41643;SDS011;44236;48.098;11.582;2023-11-22T05:58:15;1.20;;;0.60;;
41643;SDS011;44236;48.098;11.582;2023-11-22T06:00:45;1.92;;;0.80;;
41643;SDS011;44236;48.098;11.582;2023-11-22T06:03:11;1.92;;;1.17;;
41643;SDS011;44236;48.098;11.582;2023-11-22T06:05:38;2.30;;;1.42;;
41643;SDS011;44236;48.098;11.582;2023-11-22T06:08:04;2.92;;;1.65;;
41643;SDS011;44236;48.098;11.582;2023-11-22T06:10:29;1.65;;;1.08;;
41643;SDS011;44236;48.098;11.582;2023-11-22T06:12:55;2.55;;;1.55;;
41643;SDS011;44236;48.098;11.582;2023-11-22T06:15:21;2.47;;;1.15;;
41643;SDS011;44236;48.098;11.582;2023-11-22T06:17:47;4.65;;;1.30;;
41643;SDS011;44236;48.098;11.582;2023-11-22T06:20:16;6.18;;;1.00;;
41643;SDS011;44236;48.098;11.582;2023-11-22T06:22:42;2.10;;;1.23;;
41643;SDS011;44236;48.098;11.582;2023-11-22T06:27:34;1.88;;;1.00;;
41643;SDS011;44236;48.098;11.582;2023-11-22T06:29:59;2.75;;;0.80;;
41643;SDS011;44236;48.098;11.582;2023-11-22T06:32:25;3.78;;;0.95;;
41643;SDS011;44236;48.098;11.582;2023-11-22T06:34:50;6.50;;;0.95;;
41643;SDS011;44236;48.098;11.582;2023-11-22T06:37:16;2.38;;;1.05;;
41643;SDS011;44236;48.098;11.582;2023-11-22T06:39:43;4.28;;;0.88;;
41643;SDS011;44236;48.098;11.582;2023-11-22T06:42:09;4.13;;;1.05;;
41643;SDS011;44236;48.098;11.582;2023-11-22T06:44:35;4.50;;;0.90;;
41643;SDS011;44236;48.098;11.582;2023-11-22T06:47:02;4.00;;;0.93;;
41643;SDS011;44236;48.098;11.582;2023-11-22T06:49:27;4.68;;;0.77;;
41643;SDS011;44236;48.098;11.582;2023-11-22T06:51:53;4.38;;;1.10;;
41643;SDS011;44236;48.098;11.582;2023-11-22T06:54:21;2.70;;;0.82;;
41643;SDS011;44236;48.098;11.582;2023-11-22T06:56:47;5.03;;;1.95;;
41643;SDS011;44236;48.098;11.582;2023-11-22T06:59:13;4.40;;;1.02;;
41643;SDS011;44236;48.098;11.582;2023-11-22T07:01:39;2.72;;;1.20;;
41643;SDS011;44236;48.098;11.582;2023-11-22T07:04:05;4.68;;;0.98;;
41643;SDS011;44236;48.098;11.582;2023-11-22T07:06:31;4.55;;;1.00;;
41643;SDS011;44236;48.098;11.582;2023-11-22T07:08:57;6.35;;;1.30;;
41643;SDS011;44236;48.098;11.582;2023-11-22T07:11:24;6.50;;;1.27;;
41643;SDS011;44236;48.098;11.582;2023-11-22T07:13:51;2.40;;;1.00;;
41643;SDS011;44236;48.098;11.582;2023-11-22T07:16:17;1.92;;;1.00;;
41643;SDS011;44236;48.098;11.582;2023-11-22T07:18:44;2.80;;;0.98;;
41643;SDS011;44236;48.098;11.582;2023-11-22T07:21:10;2.30;;;1.10;;
41643;SDS011;44236;48.098;11.582;2023-11-22T07:23:36;5.03;;;2.97;;
41643;SDS011;44236;48.098;11.582;2023-11-22T07:26:03;6.57;;;1.75;;
41643;SDS011;44236;48.098;11.582;2023-11-22T07:28:29;4.10;;;1.40;;
41643;SDS011;44236;48.098;11.582;2023-11-22T07:30:55;5.63;;;1.40;;
41643;SDS011;44236;48.098;11.582;2023-11-22T07:33:21;6.03;;;1.25;;
41643;SDS011;44236;48.098;11.582;2023-11-22T07:35:47;5.50;;;1.52;;
41643;SDS011;44236;48.098;11.582;2023-11-22T07:38:13;10.27;;;1.70;;
41643;SDS011;44236;48.098;11.582;2023-11-22T07:40:39;6.15;;;1.92;;
41643;SDS011;44236;48.098;11.582;2023-11-22T07:43:04;7.45;;;1.73;;
41643;SDS011;44236;48.098;11.582;2023-11-22T07:45:31;7.65;;;2.72;;
41643;SDS011;44236;48.098;11.582;2023-11-22T07:47:59;10.55;;;2.10;;
41643;SDS011;44236;48.098;11.582;2023-11-22T07:50:28;9.77;;;2.10;;
41643;SDS011;44236;48.098;11.582;2023-11-22T07:52:54;9.77;;;1.65;;
41643;SDS011;44236;48.098;11.582;2023-11-22T07:55:20;5.35;;;2.13;;
41643;SDS011;44236;48.098;11.582;2023-11-22T07:57:48;4.63;;;2.00;;
41643;SDS011;44236;48.098;11.582;2023-11-22T08:00:15;11.85;;;1.88;;
41643;SDS011;44236;48.098;11.582;2023-11-22T08:02:44;6.20;;;1.83;;
41643;SDS011;44236;48.098;11.582;2023-11-22T08:05:10;8.60;;;1.73;;
41643;SDS011;44236;48.098;11.582;2023-11-22T08:07:40;9.07;;;2.42;;
41643;SDS011;44236;48.098;11.582;2023-11-22T08:10:10;4.80;;;2.08;;
41643;SDS011;44236;48.098;11.582;2023-11-22T08:12:47;3.65;;;1.75;;
41643;SDS011;44236;48.098;11.582;2023-11-22T08:15:15;9.82;;;3.03;;
41643;SDS011;44236;48.098;11.582;2023-11-22T08:17:41;7.05;;;1.80;;
41643;SDS011;44236;48.098;11.582;2023-11-22T08:20:08;7.45;;;2.03;;
41643;SDS011;44236;48.098;11.582;2023-11-22T08:22:38;6.88;;;1.65;;
41643;SDS011;44236;48.098;11.582;2023-11-22T08:25:04;4.75;;;1.90;;
41643;SDS011;44236;48.098;11.582;2023-11-22T08:27:33;6.03;;;1.90;;
41643;SDS011;44236;48.098;11.582;2023-11-22T08:29:59;3.95;;;1.67;;
41643;SDS011;44236;48.098;11.582;2023-11-22T08:32:30;12.75;;;2.45;;
41643;SDS011;44236;48.098;11.582;2023-11-22T08:34:56;7.28;;;1.77;;
41643;SDS011;44236;48.098;11.582;2023-11-22T08:37:22;4.97;;;1.70;;
41643;SDS011;44236;48.098;11.582;2023-11-22T08:39:48;9.70;;;2.40;;
41643;SDS011;44236;48.098;11.582;2023-11-22T08:42:14;5.68;;;1.65;;
41643;SDS011;44236;48.098;11.582;2023-11-22T08:44:40;8.10;;;1.80;;
41643;SDS011;44236;48.098;11.582;2023-11-22T08:47:06;5.93;;;1.60;;
41643;SDS011;44236;48.098;11.582;2023-11-22T08:49:33;9.95;;;2.28;;
41643;SDS011;44236;48.098;11.582;2023-11-22T08:51:59;6.47;;;2.10;;
41643;SDS011;44236;48.098;11.582;2023-11-22T08:54:25;3.80;;;2.00;;
41643;SDS011;44236;48.098;11.582;2023-11-22T08:56:55;6.88;;;1.30;;
41643;SDS011;44236;48.098;11.582;2023-11-22T08:59:25;4.80;;;1.90;;
41643;SDS011;44236;48.098;11.582;2023-11-22T09:01:51;6.60;;;1.40;;
41643;SDS011;44236;48.098;11.582;2023-11-22T09:04:17;3.10;;;1.65;;
41643;SDS011;44236;48.098;11.582;2023-11-22T09:06:43;5.60;;;1.73;;
41643;SDS011;44236;48.098;11.582;2023-11-22T09:09:09;8.55;;;1.88;;
41643;SDS011;44236;48.098;11.582;2023-11-22T09:11:40;4.30;;;1.60;;
41643;SDS011;44236;48.098;11.582;2023-11-22T09:14:06;3.38;;;1.50;;
41643;SDS011;44236;48.098;11.582;2023-11-22T09:16:37;4.72;;;1.65;;
41643;SDS011;44236;48.098;11.582;2023-11-22T09:19:04;6.38;;;1.58;;
41643;SDS011;44236;48.098;11.582;2023-11-22T09:21:31;3.08;;;1.23;;
41643;SDS011;44236;48.098;11.582;2023-11-22T09:23:57;3.38;;;1.38;;
41643;SDS011;44236;48.098;11.582;2023-11-22T09:26:24;3.92;;;1.83;;
41643;SDS011;44236;48.098;11.582;2023-11-22T09:28:49;3.22;;;1.60;;
41643;SDS011;44236;48.098;11.582;2023-11-22T09:31:15;3.33;;;1.30;;
41643;SDS011;44236;48.098;11.582;2023-11-22T09:33:45;4.43;;;1.50;;
41643;SDS011;44236;48.098;11.582;2023-11-22T09:36:12;2.85;;;1.17;;
41643;SDS011;44236;48.098;11.582;2023-11-22T09:38:38;3.22;;;1.35;;
41643;SDS011;44236;48.098;11.582;2023-11-22T09:41:04;6.18;;;1.55;;
41643;SDS011;44236;48.098;11.582;2023-11-22T09:43:30;5.93;;;1.98;;
41643;SDS011;44236;48.098;11.582;2023-11-22T09:45:56;5.05;;;1.50;;
41643;SDS011;44236;48.098;11.582;2023-11-22T09:48:22;2.95;;;1.48;;
41643;SDS011;44236;48.098;11.582;2023-11-22T09:56:08;3.55;;;1.40;;
41643;SDS011;44236;48.098;11.582;2023-11-22T09:58:41;2.63;;;1.20;;
41643;SDS011;44236;48.098;11.582;2023-11-22T10:01:13;5.32;;;1.75;;
41643;SDS011;44236;48.098;11.582;2023-11-22T10:03:39;6.45;;;1.45;;
41643;SDS011;44236;48.098;11.582;2023-11-22T10:06:05;4.80;;;1.30;;
41643;SDS011;44236;48.098;11.582;2023-11-22T10:08:35;2.42;;;1.23;;
41643;SDS011;44236;48.098;11.582;2023-11-22T10:11:03;3.33;;;1.27;;
41643;SDS011;44236;48.098;11.582;2023-11-22T10:13:29;4.40;;;1.63;;
41643;SDS011;44236;48.098;11.582;2023-11-22T10:15:54;3.00;;;1.20;;
41643;SDS011;44236;48.098;11.582;2023-11-22T10:18:20;4.45;;;1.58;;
41643;SDS011;44236;48.098;11.582;2023-11-22T10:20:47;3.85;;;1.30;;
41643;SDS011;44236;48.098;11.582;2023-11-22T10:23:17;4.35;;;1.45;;
41643;SDS011;44236;48.098;11.582;2023-11-22T10:28:17;3.78;;;1.60;;
41643;SDS011;44236;48.098;11.582;2023-11-22T10:30:46;2.70;;;1.40;;
41643;SDS011;44236;48.098;11.582;2023-11-22T10:33:13;7.10;;;1.52;;
41643;SDS011;44236;48.098;11.582;2023-11-22T10:35:43;7.68;;;1.27;;
41643;SDS011;44236;48.098;11.582;2023-11-22T10:38:10;3.33;;;1.40;;
41643;SDS011;44236;48.098;11.582;2023-11-22T10:43:11;3.30;;;1.08;;
41643;SDS011;44236;48.098;11.582;2023-11-22T10:45:37;2.13;;;1.30;;
41643;SDS011;44236;48.098;11.582;2023-11-22T10:48:04;2.67;;;1.42;;
41643;SDS011;44236;48.098;11.582;2023-11-22T10:50:30;4.57;;;1.20;;
41643;SDS011;44236;48.098;11.582;2023-11-22T10:52:57;4.47;;;1.40;;
41643;SDS011;44236;48.098;11.582;2023-11-22T10:55:28;3.55;;;1.33;;
41643;SDS011;44236;48.098;11.582;2023-11-22T11:00:26;4.32;;;1.15;;
41643;SDS011;44236;48.098;11.582;2023-11-22T11:02:55;3.08;;;1.30;;
41643;SDS011;44236;48.098;11.582;2023-11-22T11:05:30;3.42;;;1.33;;
41643;SDS011;44236;48.098;11.582;2023-11-22T11:08:06;1.48;;;1.15;;
41643;SDS011;44236;48.098;11.582;2023-11-22T11:10:43;2.55;;;1.08;;
41643;SDS011;44236;48.098;11.582;2023-11-22T11:13:12;3.95;;;1.60;;
41643;SDS011;44236;48.098;11.582;2023-11-22T11:15:42;3.55;;;1.10;;
41643;SDS011;44236;48.098;11.582;2023-11-22T11:18:08;4.07;;;1.45;;
41643;SDS011;44236;48.098;11.582;2023-11-22T11:23:20;3.63;;;1.80;;
41643;SDS011;44236;48.098;11.582;2023-11-22T11:25:53;9.00;;;1.50;;
41643;SDS011;44236;48.098;11.582;2023-11-22T11:28:41;3.65;;;1.10;;
41643;SDS011;44236;48.098;11.582;2023-11-22T11:31:09;2.92;;;1.17;;
41643;SDS011;44236;48.098;11.582;2023-11-22T11:36:29;2.60;;;1.50;;
41643;SDS011;44236;48.098;11.582;2023-11-22T11:38:59;2.47;;;1.45;;
41643;SDS011;44236;48.098;11.582;2023-11-22T11:41:40;3.22;;;1.23;;
41643;SDS011;44236;48.098;11.582;2023-11-22T11:44:22;2.55;;;1.15;;
41643;SDS011;44236;48.098;11.582;2023-11-22T11:46:51;4.38;;;1.50;;
41643;SDS011;44236;48.098;11.582;2023-11-22T11:49:17;3.97;;;1.27;;
41643;SDS011;44236;48.098;11.582;2023-11-22T11:51:42;2.65;;;1.40;;
41643;SDS011;44236;48.098;11.582;2023-11-22T11:54:08;2.30;;;1.30;;
41643;SDS011;44236;48.098;11.582;2023-11-22T11:56:34;2.97;;;1.10;;
41643;SDS011;44236;48.098;11.582;2023-11-22T11:59:00;2.60;;;1.60;;
41643;SDS011;44236;48.098;11.582;2023-11-22T12:01:27;3.15;;;1.20;;
41643;SDS011;44236;48.098;11.582;2023-11-22T12:03:57;5.55;;;1.50;;
41643;SDS011;44236;48.098;11.582;2023-11-22T12:06:25;2.55;;;1.15;;
41643;SDS011;44236;48.098;11.582;2023-11-22T12:08:51;3.30;;;1.30;;
41643;SDS011;44236;48.098;11.582;2023-11-22T12:11:18;2.17;;;1.25;;
41643;SDS011;44236;48.098;11.582;2023-11-22T12:13:44;2.85;;;1.30;;
41643;SDS011;44236;48.098;11.582;2023-11-22T12:16:15;2.45;;;1.65;;
41643;SDS011;44236;48.098;11.582;2023-11-22T12:18:42;3.83;;;1.27;;
41643;SDS011;44236;48.098;11.582;2023-11-22T12:21:12;2.90;;;1.27;;
41643;SDS011;44236;48.098;11.582;2023-11-22T12:23:39;1.27;;;1.13;;
41643;SDS011;44236;48.098;11.582;2023-11-22T12:26:09;2.92;;;1.17;;
41643;SDS011;44236;48.098;11.582;2023-11-22T12:28:36;2.08;;;1.10;;
41643;SDS011;44236;48.098;11.582;2023-11-22T12:31:12;1.92;;;1.08;;
41643;SDS011;44236;48.098;11.582;2023-11-22T12:33:40;2.05;;;1.10;;
41643;SDS011;44236;48.098;11.582;2023-11-22T12:36:06;2.65;;;1.10;;
41643;SDS011;44236;48.098;11.582;2023-11-22T12:38:34;2.05;;;1.13;;
41643;SDS011;44236;48.098;11.582;2023-11-22T12:41:01;2.35;;;1.30;;
41643;SDS011;44236;48.098;11.582;2023-11-22T12:43:31;2.10;;;1.20;;
41643;SDS011;44236;48.098;11.582;2023-11-22T12:46:04;2.53;;;1.30;;
41643;SDS011;44236;48.098;11.582;2023-11-22T12:48:36;3.00;;;1.20;;
41643;SDS011;44236;48.098;11.582;2023-11-22T12:51:02;1.85;;;1.30;;
41643;SDS011;44236;48.098;11.582;2023-11-22T12:53:39;2.30;;;1.13;;
41643;SDS011;44236;48.098;11.582;2023-11-22T12:56:05;2.22;;;1.30;;
41643;SDS011;44236;48.098;11.582;2023-11-22T12:58:32;1.83;;;1.02;;
41643;SDS011;44236;48.098;11.582;2023-11-22T13:00:58;2.60;;;1.30;;
41643;SDS011;44236;48.098;11.582;2023-11-22T13:03:25;2.25;;;1.45;;
41643;SDS011;44236;48.098;11.582;2023-11-22T13:05:52;1.50;;;0.98;;
41643;SDS011;44236;48.098;11.582;2023-11-22T13:08:19;2.38;;;1.00;;
41643;SDS011;44236;48.098;11.582;2023-11-22T13:10:47;1.63;;;0.90;;
41643;SDS011;44236;48.098;11.582;2023-11-22T13:13:34;1.65;;;1.00;;
41643;SDS011;44236;48.098;11.582;2023-11-22T13:16:00;2.10;;;1.10;;
41643;SDS011;44236;48.098;11.582;2023-11-22T13:18:31;2.92;;;1.20;;
41643;SDS011;44236;48.098;11.582;2023-11-22T13:20:57;2.35;;;1.10;;
41643;SDS011;44236;48.098;11.582;2023-11-22T13:23:23;1.85;;;0.95;;
41643;SDS011;44236;48.098;11.582;2023-11-22T13:25:48;2.15;;;1.10;;
41643;SDS011;44236;48.098;11.582;2023-11-22T13:28:14;1.52;;;0.80;;
41643;SDS011;44236;48.098;11.582;2023-11-22T13:30:39;1.80;;;0.95;;
41643;SDS011;44236;48.098;11.582;2023-11-22T13:33:05;1.95;;;1.05;;
41643;SDS011;44236;48.098;11.582;2023-11-22T13:35:31;2.30;;;1.17;;
41643;SDS011;44236;48.098;11.582;2023-11-22T13:37:57;1.10;;;0.88;;
41643;SDS011;44236;48.098;11.582;2023-11-22T13:40:24;2.63;;;0.90;;
41643;SDS011;44236;48.098;11.582;2023-11-22T13:42:52;2.50;;;1.17;;
41643;SDS011;44236;48.098;11.582;2023-11-22T13:45:18;2.03;;;1.23;;
41643;SDS011;44236;48.098;11.582;2023-11-22T13:47:45;2.35;;;1.10;;
41643;SDS011;44236;48.098;11.582;2023-11-22T13:50:13;1.25;;;0.85;;
41643;SDS011;44236;48.098;11.582;2023-11-22T13:52:43;3.70;;;1.30;;
41643;SDS011;44236;48.098;11.582;2023-11-22T13:55:10;1.05;;;0.85;;
41643;SDS011;44236;48.098;11.582;2023-11-22T13:57:37;2.08;;;1.10;;
41643;SDS011;44236;48.098;11.582;2023-11-22T14:00:07;1.58;;;0.98;;
41643;SDS011;44236;48.098;11.582;2023-11-22T14:02:46;1.50;;;0.90;;
41643;SDS011;44236;48.098;11.582;2023-11-22T14:05:21;1.52;;;1.08;;
41643;SDS011;44236;48.098;11.582;2023-11-22T14:07:47;2.15;;;1.10;;
41643;SDS011;44236;48.098;11.582;2023-11-22T14:10:13;2.00;;;1.00;;
41643;SDS011;44236;48.098;11.582;2023-11-22T14:12:41;3.42;;;1.20;;
41643;SDS011;44236;48.098;11.582;2023-11-22T14:15:11;1.10;;;0.88;;
41643;SDS011;44236;48.098;11.582;2023-11-22T14:17:39;1.00;;;0.88;;
41643;SDS011;44236;48.098;11.582;2023-11-22T14:20:06;1.30;;;0.90;;
41643;SDS011;44236;48.098;11.582;2023-11-22T14:22:36;2.33;;;0.93;;
41643;SDS011;44236;48.098;11.582;2023-11-22T14:25:02;2.20;;;1.17;;
41643;SDS011;44236;48.098;11.582;2023-11-22T14:27:29;1.75;;;0.93;;
41643;SDS011;44236;48.098;11.582;2023-11-22T14:29:56;1.95;;;1.10;;
41643;SDS011;44236;48.098;11.582;2023-11-22T14:32:21;2.85;;;1.33;;
41643;SDS011;44236;48.098;11.582;2023-11-22T14:34:47;1.52;;;1.15;;
41643;SDS011;44236;48.098;11.582;2023-11-22T14:37:13;1.35;;;0.90;;
41643;SDS011;44236;48.098;11.582;2023-11-22T14:39:39;1.77;;;0.98;;
41643;SDS011;44236;48.098;11.582;2023-11-22T14:42:05;2.22;;;1.20;;
41643;SDS011;44236;48.098;11.582;2023-11-22T14:44:32;2.30;;;1.08;;
41643;SDS011;44236;48.098;11.582;2023-11-22T14:47:01;1.77;;;1.02;;
41643;SDS011;44236;48.098;11.582;2023-11-22T14:49:37;1.70;;;0.80;;
41643;SDS011;44236;48.098;11.582;2023-11-22T14:52:03;1.52;;;1.00;;
41643;SDS011;44236;48.098;11.582;2023-11-22T14:54:29;1.77;;;1.05;;